Time;durP1;ratioP1;P1;durP2;ratioP2;P2;SDS_P1;SDS_P2;PMS_P1;PMS_P2;Temp;Humidity;BMP_temperature;BMP_pressure;BME280_temperature;BME280_humidity;BME280_pressure;Samples;Min_cycle;Max_cycle;Signal;HPM_P1;HPM_P2
2021/07/02 00:01:49;;;;;;;24.13;19.35;;;24.00;97.90;;;;;;4899757;29;20060;-82
2021/07/02 00:04:15;;;;;;;23.55;19.35;;;24.00;97.90;;;;;;4883728;29;20103;-83
2021/07/02 00:06:40;;;;;;;24.48;19.95;;;24.00;97.90;;;;;;4884452;29;20055;-82
2021/07/02 00:09:06;;;;;;;23.52;19.42;;;24.00;97.90;;;;;;4883789;29;20032;-83
2021/07/02 00:11:32;;;;;;;25.55;20.98;;;24.00;97.90;;;;;;4899565;29;20084;-83
2021/07/02 00:13:58;;;;;;;25.02;20.15;;;24.00;97.90;;;;;;4883941;29;20036;-82
2021/07/02 00:16:23;;;;;;;24.40;19.83;;;24.00;97.90;;;;;;4899456;29;20033;-82
2021/07/02 00:18:49;;;;;;;26.50;20.23;;;24.00;97.90;;;;;;4884236;29;20036;-83
2021/07/02 00:21:15;;;;;;;24.60;20.15;;;24.00;97.90;;;;;;4900325;29;20036;-83
2021/07/02 00:23:40;;;;;;;26.20;21.02;;;24.00;97.90;;;;;;4883760;29;20157;-82
2021/07/02 00:26:06;;;;;;;24.67;20.20;;;24.00;98.00;;;;;;4899497;29;20033;-82
2021/07/02 00:28:31;;;;;;;23.42;20.23;;;24.00;98.20;;;;;;4900227;29;20488;-82
2021/07/02 00:30:57;;;;;;;25.73;20.83;;;24.00;98.00;;;;;;4900503;29;20370;-83
2021/07/02 00:33:23;;;;;;;24.83;20.52;;;24.00;98.00;;;;;;4883377;29;20040;-82
2021/07/02 00:35:48;;;;;;;22.40;19.65;;;24.00;98.00;;;;;;4885200;29;20040;-82
2021/07/02 00:38:14;;;;;;;22.00;18.90;;;24.00;98.00;;;;;;4886197;29;20033;-82
2021/07/02 00:40:40;;;;;;;22.95;19.58;;;24.00;98.00;;;;;;4886500;29;20028;-82
2021/07/02 00:43:06;;;;;;;23.80;20.63;;;24.00;98.20;;;;;;4885198;29;20043;-82
2021/07/02 00:45:33;;;;;;;24.10;20.33;;;24.00;98.00;;;;;;4899076;29;20042;-83
2021/07/02 00:47:59;;;;;;;22.60;19.42;;;23.90;98.00;;;;;;4900066;29;20036;-83
2021/07/02 00:50:25;;;;;;;24.30;19.55;;;24.00;98.00;;;;;;4884707;29;20028;-83
2021/07/02 00:52:51;;;;;;;23.58;19.50;;;24.00;98.00;;;;;;4899992;29;20085;-82
2021/07/02 00:55:16;;;;;;;25.10;20.42;;;24.00;98.10;;;;;;4899124;29;20503;-83
2021/07/02 00:57:45;;;;;;;24.48;19.02;;;23.90;98.00;;;;;;4900024;29;20037;-83
2021/07/02 01:00:11;;;;;;;23.52;19.17;;;24.00;98.10;;;;;;4898503;29;20032;-84
2021/07/02 01:02:37;;;;;;;26.02;21.38;;;24.00;98.10;;;;;;4898747;29;20033;-83
2021/07/02 01:05:05;;;;;;;23.90;19.70;;;24.00;98.10;;;;;;4900140;29;20033;-82
2021/07/02 01:07:32;;;;;;;22.85;19.73;;;24.00;98.10;;;;;;4898221;29;20115;-83
2021/07/02 01:09:58;;;;;;;24.75;20.40;;;24.00;98.10;;;;;;4899722;29;20115;-82
2021/07/02 01:12:24;;;;;;;25.92;20.20;;;24.00;98.10;;;;;;4898852;29;20033;-82
2021/07/02 01:14:49;;;;;;;21.65;18.63;;;24.00;98.30;;;;;;4899025;29;20028;-82
2021/07/02 01:17:15;;;;;;;22.27;18.60;;;24.00;98.10;;;;;;4886725;29;20088;-82
2021/07/02 01:19:49;;;;;;;22.48;19.25;;;24.00;98.10;;;;;;4887244;29;20033;-82
2021/07/02 01:22:25;;;;;;;23.65;19.77;;;24.00;98.10;;;;;;4902270;29;20425;-82
2021/07/02 01:24:55;;;;;;;21.85;18.42;;;24.00;98.10;;;;;;4901597;29;20041;-83
2021/07/02 01:27:22;;;;;;;22.40;18.98;;;23.90;98.10;;;;;;4898548;29;20077;-83
2021/07/02 01:29:48;;;;;;;21.77;19.13;;;23.90;98.10;;;;;;4898670;29;20036;-83
2021/07/02 01:32:18;;;;;;;21.80;18.70;;;23.90;98.10;;;;;;4898159;29;20035;-83
2021/07/02 01:34:44;;;;;;;21.38;18.00;;;23.90;98.20;;;;;;4898284;29;20033;-83
2021/07/02 01:37:11;;;;;;;21.10;17.90;;;24.00;98.20;;;;;;4898584;29;20060;-83
2021/07/02 01:39:38;;;;;;;21.15;18.50;;;23.90;98.20;;;;;;4882421;29;20490;-83
2021/07/02 01:42:06;;;;;;;20.65;17.55;;;23.90;98.20;;;;;;4882537;29;20028;-83
2021/07/02 01:44:32;;;;;;;21.38;17.75;;;23.90;98.20;;;;;;4897541;29;20467;-81
2021/07/02 01:46:58;;;;;;;21.17;17.92;;;23.90;98.20;;;;;;4882433;29;20032;-83
2021/07/02 01:49:23;;;;;;;21.63;18.00;;;23.90;98.20;;;;;;4881896;29;20036;-83
2021/07/02 01:51:49;;;;;;;21.38;17.50;;;23.90;98.20;;;;;;4882277;29;20033;-82
2021/07/02 01:54:15;;;;;;;21.73;18.00;;;24.00;98.30;;;;;;4897591;29;20495;-84
2021/07/02 01:56:47;;;;;;;21.70;17.75;;;23.90;98.20;;;;;;4881983;29;20028;-82
2021/07/02 01:59:17;;;;;;;22.08;18.67;;;23.90;98.20;;;;;;4897913;29;20084;-82
2021/07/02 02:01:44;;;;;;;20.90;17.60;;;23.90;98.30;;;;;;4882542;29;20120;-82
2021/07/02 02:09:21;;;;;;;19.80;17.08;;;24.00;98.30;;;;;;4908670;23;20064;-89
2021/07/02 02:11:46;;;;;;;19.05;16.60;;;24.00;98.30;;;;;;4865217;29;20036;-89
2021/07/02 02:14:12;;;;;;;20.27;16.90;;;23.90;98.30;;;;;;4881008;29;20443;-89
2021/07/02 02:16:38;;;;;;;18.88;15.90;;;23.90;98.30;;;;;;4871090;29;20592;-89
2021/07/02 02:19:04;;;;;;;18.38;15.68;;;23.90;98.30;;;;;;4901010;29;20029;-90
2021/07/02 02:21:31;;;;;;;18.45;15.63;;;24.00;98.30;;;;;;4883402;29;20514;-90
2021/07/02 02:23:56;;;;;;;17.90;15.43;;;23.90;98.30;;;;;;4872528;29;20041;-89
2021/07/02 02:26:22;;;;;;;20.27;16.50;;;23.90;98.30;;;;;;4895246;29;20060;-89
2021/07/02 02:28:48;;;;;;;18.20;15.25;;;24.00;98.30;;;;;;4849536;29;20037;-89
2021/07/02 02:31:13;;;;;;;18.23;16.05;;;23.90;98.30;;;;;;4878911;29;20132;-90
2021/07/02 02:33:39;;;;;;;18.30;15.73;;;23.90;98.30;;;;;;4863850;29;20493;-90
2021/07/02 02:36:05;;;;;;;19.00;15.55;;;23.90;98.30;;;;;;4878839;29;20029;-91
2021/07/02 02:38:31;;;;;;;18.85;15.55;;;23.90;98.30;;;;;;4878953;29;20408;-90
2021/07/02 02:40:56;;;;;;;17.63;14.93;;;24.00;98.40;;;;;;4879862;29;20029;-89
2021/07/02 02:43:22;;;;;;;18.23;15.60;;;23.90;98.40;;;;;;4863492;29;20048;-90
2021/07/02 02:45:48;;;;;;;17.80;14.60;;;23.90;98.40;;;;;;4863681;29;20600;-90
2021/07/02 02:48:13;;;;;;;16.90;14.40;;;23.90;98.40;;;;;;4880034;29;20060;-90
2021/07/02 02:50:39;;;;;;;16.60;14.35;;;23.90;98.40;;;;;;4848912;29;20041;-89
2021/07/02 02:53:05;;;;;;;17.02;14.25;;;23.90;98.40;;;;;;4848422;29;20116;-90
2021/07/02 02:55:30;;;;;;;17.05;14.05;;;23.90;98.40;;;;;;4880004;29;20157;-90
2021/07/02 02:57:56;;;;;;;15.95;13.65;;;23.90;98.40;;;;;;4848048;29;20048;-90
2021/07/02 03:00:21;;;;;;;16.17;13.55;;;23.90;98.40;;;;;;4863144;29;20033;-90
2021/07/02 03:02:47;;;;;;;17.10;13.73;;;23.90;98.40;;;;;;4847759;29;20037;-90
2021/07/02 03:05:13;;;;;;;15.57;12.75;;;23.90;98.40;;;;;;4878138;29;20037;-90
2021/07/02 03:07:41;;;;;;;15.80;13.57;;;23.90;98.40;;;;;;4863150;29;20057;-91
2021/07/02 03:10:07;;;;;;;14.60;13.02;;;23.90;98.40;;;;;;4849558;29;20043;-90
2021/07/02 03:12:33;;;;;;;15.65;13.45;;;23.90;98.40;;;;;;4879126;29;20064;-90
2021/07/02 03:14:59;;;;;;;16.17;13.23;;;23.90;98.40;;;;;;4878414;29;20073;-90
2021/07/02 03:17:24;;;;;;;15.45;12.85;;;23.90;98.40;;;;;;4879554;29;20518;-90
2021/07/02 03:19:50;;;;;;;14.85;12.88;;;23.90;98.40;;;;;;4862792;29;20084;-90
2021/07/02 03:22:16;;;;;;;15.40;12.50;;;23.90;98.50;;;;;;4879458;29;20037;-91
2021/07/02 03:24:42;;;;;;;13.45;12.00;;;23.90;98.40;;;;;;4863007;29;20065;-89
2021/07/02 03:27:07;;;;;;;14.52;12.27;;;23.90;98.40;;;;;;4863030;29;20037;-91
2021/07/02 03:29:33;;;;;;;13.57;11.73;;;23.90;98.50;;;;;;4878527;29;20044;-91
2021/07/02 03:31:59;;;;;;;14.75;12.35;;;23.90;98.50;;;;;;4866460;29;20158;-90
2021/07/02 03:34:24;;;;;;;14.00;11.80;;;23.90;98.50;;;;;;4881744;29;20037;-90
2021/07/02 03:36:50;;;;;;;12.93;11.52;;;23.90;98.50;;;;;;4881927;29;20459;-90
2021/07/02 03:39:16;;;;;;;13.07;11.57;;;23.90;98.50;;;;;;4881554;29;20447;-90
2021/07/02 03:41:41;;;;;;;12.73;11.20;;;23.90;98.50;;;;;;4850999;29;20029;-90
2021/07/02 03:44:07;;;;;;;13.23;11.07;;;23.90;98.50;;;;;;4881751;29;20162;-90
2021/07/02 03:46:33;;;;;;;12.90;11.25;;;23.90;98.50;;;;;;4881556;29;20033;-90
2021/07/02 03:48:58;;;;;;;12.18;10.45;;;23.90;98.50;;;;;;4882659;29;20040;-89
2021/07/02 03:51:24;;;;;;;13.52;11.25;;;23.90;98.60;;;;;;4866219;29;20483;-90
2021/07/02 03:53:50;;;;;;;12.57;10.43;;;23.90;98.60;;;;;;4866242;29;20037;-91
2021/07/02 03:56:15;;;;;;;11.35;10.15;;;23.80;98.50;;;;;;4865747;29;20104;-90
2021/07/02 03:58:41;;;;;;;11.75;10.02;;;23.80;98.50;;;;;;4881320;29;20040;-91
2021/07/02 04:01:07;;;;;;;11.57;9.93;;;23.90;98.60;;;;;;4882407;29;20025;-91
2021/07/02 04:03:33;;;;;;;12.23;10.45;;;23.80;98.60;;;;;;4880151;29;20048;-91
2021/07/02 04:06:00;;;;;;;11.50;10.02;;;23.90;98.60;;;;;;4859943;29;20064;-91
2021/07/02 04:08:26;;;;;;;11.50;9.80;;;23.90;98.60;;;;;;4866442;29;20068;-91
2021/07/02 04:10:51;;;;;;;10.88;9.30;;;23.90;98.60;;;;;;4888748;29;20120;-90
2021/07/02 04:13:17;;;;;;;11.30;9.73;;;23.90;98.60;;;;;;4870456;29;20458;-90
2021/07/02 04:15:43;;;;;;;11.35;9.95;;;23.90;98.60;;;;;;4881250;29;20068;-90
2021/07/02 04:18:08;;;;;;;11.90;10.13;;;23.90;98.60;;;;;;4880738;29;20041;-91
2021/07/02 04:20:36;;;;;;;10.55;9.40;;;23.90;98.60;;;;;;4881109;29;20048;-91
2021/07/02 04:23:02;;;;;;;9.98;8.98;;;23.90;98.60;;;;;;4882087;29;20047;-91
2021/07/02 04:25:28;;;;;;;11.57;9.82;;;23.80;98.60;;;;;;4881940;29;20060;-89
2021/07/02 04:27:54;;;;;;;10.30;9.20;;;23.90;98.60;;;;;;4883074;29;20065;-89
2021/07/02 04:30:20;;;;;;;10.75;9.05;;;23.90;98.60;;;;;;4881875;29;20540;-90
2021/07/02 04:32:46;;;;;;;9.15;8.18;;;23.90;98.60;;;;;;4865200;29;20068;-90
2021/07/02 04:35:12;;;;;;;9.82;8.73;;;23.90;98.70;;;;;;4880855;29;20040;-90
2021/07/02 04:37:39;;;;;;;9.75;8.45;;;23.90;98.60;;;;;;4865679;29;20105;-90
2021/07/02 04:40:06;;;;;;;9.73;8.73;;;23.90;98.60;;;;;;4880539;29;20048;-91
2021/07/02 04:42:32;;;;;;;9.38;8.27;;;23.90;98.60;;;;;;4880983;29;20064;-90
2021/07/02 04:44:58;;;;;;;10.15;8.52;;;23.90;98.70;;;;;;4864822;29;20037;-91
2021/07/02 04:47:24;;;;;;;9.13;7.90;;;23.80;98.60;;;;;;4865195;29;20080;-92
2021/07/02 04:49:50;;;;;;;9.23;7.88;;;23.90;98.60;;;;;;4865175;29;20084;-90
2021/07/02 04:52:16;;;;;;;8.75;7.82;;;23.90;98.60;;;;;;4849405;29;20033;-91
2021/07/02 04:54:41;;;;;;;9.63;7.85;;;23.90;98.60;;;;;;4865406;29;20468;-90
2021/07/02 04:57:08;;;;;;;9.10;8.20;;;23.90;98.60;;;;;;4880054;29;20096;-90
2021/07/02 04:59:36;;;;;;;8.63;7.57;;;23.90;98.60;;;;;;4880810;29;20037;-90
2021/07/02 05:02:02;;;;;;;8.07;7.15;;;23.80;98.60;;;;;;4880588;29;20033;-90
2021/07/02 05:04:28;;;;;;;8.70;7.80;;;23.90;98.60;;;;;;4864697;29;20037;-90
2021/07/02 05:06:55;;;;;;;8.18;7.22;;;23.90;98.60;;;;;;4880472;29;20376;-90
2021/07/02 05:09:21;;;;;;;7.72;6.93;;;23.90;98.60;;;;;;4881402;29;20108;-90
2021/07/02 05:11:47;;;;;;;9.13;7.57;;;23.90;98.60;;;;;;4849788;29;20522;-90
2021/07/02 05:14:13;;;;;;;7.50;6.70;;;23.90;98.60;;;;;;4881227;29;20037;-90
2021/07/02 05:16:39;;;;;;;7.57;6.78;;;23.80;98.60;;;;;;4880737;29;20036;-90
2021/07/02 05:19:04;;;;;;;7.07;6.38;;;23.90;98.60;;;;;;4880544;29;20036;-89
2021/07/02 05:21:30;;;;;;;8.35;6.70;;;23.90;98.60;;;;;;4864824;29;20414;-90
2021/07/02 05:23:56;;;;;;;7.97;6.93;;;23.90;98.60;;;;;;4865570;29;20376;-90
2021/07/02 05:26:21;;;;;;;7.35;6.43;;;23.90;98.60;;;;;;4863432;29;20124;-92
2021/07/02 05:28:47;;;;;;;7.85;6.72;;;23.90;98.60;;;;;;4860712;29;20037;-90
2021/07/02 05:31:14;;;;;;;7.63;6.30;;;23.90;98.60;;;;;;4861061;29;20101;-90
2021/07/02 05:33:40;;;;;;;6.80;6.10;;;23.90;98.60;;;;;;4861266;29;20097;-90
2021/07/02 05:36:06;;;;;;;6.68;5.97;;;23.90;98.60;;;;;;4876472;29;20042;-90
2021/07/02 05:38:32;;;;;;;8.50;6.75;;;23.90;98.60;;;;;;4845891;29;20444;-90
2021/07/02 05:40:57;;;;;;;6.97;6.28;;;23.90;98.60;;;;;;4877578;29;20038;-90
2021/07/02 05:43:23;;;;;;;7.78;6.60;;;23.80;98.50;;;;;;4876866;29;20076;-90
2021/07/02 05:45:49;;;;;;;7.13;6.25;;;23.80;98.50;;;;;;4876715;29;20042;-90
2021/07/02 05:48:18;;;;;;;7.43;6.60;;;23.80;98.50;;;;;;4860906;29;20041;-90
2021/07/02 05:50:48;;;;;;;7.97;6.72;;;23.90;98.50;;;;;;4861273;29;20056;-90
2021/07/02 05:53:15;;;;;;;7.53;6.70;;;23.80;98.50;;;;;;4860212;29;20132;-90
2021/07/02 05:55:41;;;;;;;7.93;6.50;;;23.90;98.50;;;;;;4862684;29;20037;-90
2021/07/02 05:58:06;;;;;;;7.13;6.40;;;23.90;98.50;;;;;;4877862;29;20037;-90
2021/07/02 06:00:32;;;;;;;8.15;6.57;;;23.90;98.50;;;;;;4878895;29;20034;-90
2021/07/02 06:02:58;;;;;;;7.80;7.00;;;23.90;98.50;;;;;;4862278;29;20030;-90
2021/07/02 06:05:24;;;;;;;7.25;6.45;;;23.90;98.50;;;;;;4861673;29;20040;-89
2021/07/02 06:07:55;;;;;;;7.35;6.15;;;23.90;98.50;;;;;;4860913;29;20152;-90
2021/07/02 06:10:22;;;;;;;7.15;6.40;;;23.90;98.50;;;;;;4863432;29;20034;-89
2021/07/02 06:12:49;;;;;;;7.25;6.43;;;23.90;98.50;;;;;;4877105;29;20037;-90
2021/07/02 06:15:16;;;;;;;7.45;6.43;;;23.80;98.40;;;;;;4877642;29;20041;-90
2021/07/02 06:17:43;;;;;;;7.20;6.05;;;23.90;98.40;;;;;;4860974;29;20068;-89
2021/07/02 06:20:10;;;;;;;6.82;6.13;;;23.90;98.40;;;;;;4876352;29;20037;-89
2021/07/02 06:22:36;;;;;;;6.60;5.90;;;23.80;98.40;;;;;;4845070;29;20381;-89
2021/07/02 06:25:04;;;;;;;6.20;5.45;;;23.90;98.40;;;;;;4860828;29;20067;-90
2021/07/02 06:27:30;;;;;;;6.35;5.70;;;23.90;98.40;;;;;;4860571;29;20061;-89
2021/07/02 06:29:56;;;;;;;5.90;5.20;;;23.90;98.40;;;;;;4861413;29;20076;-89
2021/07/02 06:32:22;;;;;;;7.28;5.72;;;23.90;98.40;;;;;;4877492;29;20044;-89
2021/07/02 06:34:47;;;;;;;7.25;5.75;;;23.90;98.40;;;;;;4876112;29;20041;-90
2021/07/02 06:37:13;;;;;;;6.30;5.25;;;23.80;98.40;;;;;;4861579;29;20046;-89
2021/07/02 06:39:39;;;;;;;5.53;4.70;;;23.90;98.40;;;;;;4861114;29;20044;-90
2021/07/02 06:42:04;;;;;;;5.55;4.80;;;23.80;98.60;;;;;;4861271;29;20038;-89
2021/07/02 06:44:30;;;;;;;5.20;4.63;;;23.90;98.40;;;;;;4860249;29;20053;-89
2021/07/02 06:46:56;;;;;;;5.22;4.68;;;23.80;98.40;;;;;;4860111;29;20057;-88
2021/07/02 06:49:22;;;;;;;4.43;4.03;;;23.90;98.40;;;;;;4860150;29;20495;-89
2021/07/02 06:51:47;;;;;;;4.90;4.40;;;23.90;98.40;;;;;;4861220;29;20447;-89
2021/07/02 06:54:13;;;;;;;4.88;4.38;;;23.90;98.30;;;;;;4860327;29;20551;-90
2021/07/02 06:57:00;;;;;;;4.78;4.28;;;23.80;98.30;;;;;;4859680;29;20414;-89
2021/07/02 06:59:24;;;;;;;4.47;4.07;;;23.90;98.40;;;;;;4860261;29;20038;-89
2021/07/02 07:01:50;;;;;;;4.47;4.07;;;23.80;98.30;;;;;;4861353;29;20045;-89
2021/07/02 07:04:16;;;;;;;4.38;3.97;;;23.90;98.30;;;;;;4859852;29;20060;-89
2021/07/02 07:06:41;;;;;;;4.60;4.13;;;23.90;98.30;;;;;;4860279;29;20128;-90
2021/07/02 07:09:07;;;;;;;3.63;3.33;;;23.90;98.20;;;;;;4860033;29;20058;-89
2021/07/02 07:11:32;;;;;;;4.20;3.65;;;23.80;98.20;;;;;;4860434;29;20043;-89
2021/07/02 07:13:58;;;;;;;3.95;3.55;;;23.90;98.20;;;;;;4875935;29;20619;-89
2021/07/02 07:16:24;;;;;;;4.43;3.53;;;23.90;98.10;;;;;;4875210;29;20038;-89
2021/07/02 07:18:49;;;;;;;3.80;3.40;;;23.90;98.10;;;;;;4859886;29;20033;-89
2021/07/02 07:21:15;;;;;;;3.92;3.40;;;23.90;98.10;;;;;;4844500;29;20484;-88
2021/07/02 07:23:41;;;;;;;4.03;3.63;;;23.90;98.20;;;;;;4874762;29;20565;-89
2021/07/02 07:26:06;;;;;;;4.63;3.67;;;23.90;98.20;;;;;;4874859;29;20511;-89
2021/07/02 07:28:32;;;;;;;4.07;3.58;;;23.90;98.20;;;;;;4859043;29;20392;-90
2021/07/02 07:30:57;;;;;;;3.90;3.50;;;23.90;98.20;;;;;;4845102;29;20061;-89
2021/07/02 07:33:23;;;;;;;3.78;3.30;;;23.90;98.20;;;;;;4859709;29;20045;-89
2021/07/02 07:35:50;;;;;;;3.53;3.22;;;23.90;98.20;;;;;;4860378;29;20029;-90
2021/07/02 07:38:17;;;;;;;3.95;3.55;;;23.90;98.20;;;;;;4845153;29;20053;-89
2021/07/02 07:40:43;;;;;;;3.17;2.80;;;23.90;98.20;;;;;;4876287;29;20057;-90
2021/07/02 07:43:08;;;;;;;3.00;2.70;;;23.90;98.20;;;;;;4861575;29;20092;-90
2021/07/02 07:45:34;;;;;;;3.38;3.08;;;24.00;98.20;;;;;;4846834;29;20514;-90
2021/07/02 07:48:00;;;;;;;4.65;3.58;;;23.90;98.20;;;;;;4875716;29;20053;-92
2021/07/02 07:50:28;;;;;;;2.92;2.63;;;23.90;98.20;;;;;;4860889;29;20518;-90
2021/07/02 07:53:04;;;;;;;3.22;2.90;;;23.90;98.20;;;;;;4861535;29;20033;-90
2021/07/02 07:55:30;;;;;;;3.45;3.10;;;23.90;98.20;;;;;;4847046;29;20475;-90
2021/07/02 07:57:57;;;;;;;2.92;2.63;;;23.90;98.20;;;;;;4860621;29;20414;-91
2021/07/02 08:00:31;;;;;;;3.45;2.88;;;23.90;98.20;;;;;;4860643;29;20094;-90
2021/07/02 08:03:00;;;;;;;3.67;3.05;;;24.00;98.20;;;;;;4860515;29;20053;-90
2021/07/02 08:05:34;;;;;;;2.80;2.60;;;23.90;98.20;;;;;;4860090;29;20118;-92
2021/07/02 08:08:17;;;;;;;2.65;2.45;;;23.90;98.20;;;;;;4861428;29;20448;-90
2021/07/02 08:10:45;;;;;;;3.03;2.67;;;24.00;98.20;;;;;;4876529;29;20034;-91
2021/07/02 08:13:22;;;;;;;2.90;2.55;;;23.90;98.20;;;;;;4860976;29;20037;-90
2021/07/02 08:15:51;;;;;;;2.63;2.42;;;24.00;98.30;;;;;;4845293;29;20116;-92
2021/07/02 08:18:19;;;;;;;3.13;2.80;;;24.00;98.20;;;;;;4863430;29;20034;-92
2021/07/02 08:20:47;;;;;;;2.97;2.38;;;24.00;98.20;;;;;;4878180;29;20037;-92
2021/07/02 08:23:13;;;;;;;2.50;2.30;;;24.00;98.20;;;;;;4863412;29;20056;-90
2021/07/02 08:25:50;;;;;;;2.72;2.53;;;24.00;98.20;;;;;;4864139;29;20469;-92
2021/07/02 08:31:03;;;;;;;2.85;2.42;;;24.00;98.20;;;;;;4863941;29;20044;-91
2021/07/02 08:33:31;;;;;;;3.10;2.80;;;24.00;98.20;;;;;;4847284;29;20034;-89
2021/07/02 08:35:59;;;;;;;2.42;2.22;;;24.00;98.20;;;;;;4863869;29;20061;-89
2021/07/02 08:38:25;;;;;;;2.45;2.25;;;24.00;98.20;;;;;;4878264;29;20033;-90
2021/07/02 08:40:53;;;;;;;2.47;2.28;;;24.00;98.20;;;;;;4862714;29;20093;-91
2021/07/02 08:43:19;;;;;;;2.63;2.20;;;24.00;98.20;;;;;;4863327;29;20033;-91
2021/07/02 08:45:45;;;;;;;2.75;2.20;;;24.00;98.20;;;;;;4863326;29;20042;-90
2021/07/02 08:48:17;;;;;;;3.10;2.60;;;24.00;98.20;;;;;;4863742;29;20085;-90
2021/07/02 08:50:43;;;;;;;2.38;2.17;;;24.00;98.20;;;;;;4862886;29;20089;-90
2021/07/02 08:53:09;;;;;;;2.30;2.10;;;24.00;98.20;;;;;;4878040;29;20034;-90
2021/07/02 08:55:35;;;;;;;2.35;2.10;;;24.00;98.20;;;;;;4862290;29;20121;-91
2021/07/02 08:58:00;;;;;;;2.80;2.38;;;24.00;98.20;;;;;;4862339;29;20500;-90
2021/07/02 09:00:27;;;;;;;1.90;1.80;;;24.00;98.20;;;;;;4863413;29;20029;-90
2021/07/02 09:02:53;;;;;;;2.10;1.90;;;24.00;98.20;;;;;;4861767;29;20036;-89
2021/07/02 09:05:36;;;;;;;2.45;2.25;;;24.00;98.10;;;;;;4861999;29;20395;-88
2021/07/02 09:08:12;;;;;;;2.10;1.90;;;24.10;98.10;;;;;;4863117;29;20057;-92
2021/07/02 09:10:38;;;;;;;2.40;2.10;;;24.00;98.10;;;;;;4877292;29;20037;-89
2021/07/02 09:13:04;;;;;;;2.40;2.20;;;24.00;98.10;;;;;;4861635;29;20121;-90
2021/07/02 09:15:30;;;;;;;2.17;1.98;;;24.10;98.20;;;;;;4861337;29;20048;-88
2021/07/02 09:17:58;;;;;;;2.15;1.95;;;24.10;98.10;;;;;;4860866;29;20037;-90
2021/07/02 09:20:39;;;;;;;3.70;1.95;;;24.10;98.20;;;;;;4862561;29;20403;-90
2021/07/02 09:23:06;;;;;;;2.05;1.85;;;24.10;98.10;;;;;;4861112;29;20400;-90
2021/07/02 09:25:47;;;;;;;2.30;2.10;;;24.10;98.20;;;;;;4861261;29;20086;-90
2021/07/02 09:28:18;;;;;;;2.00;1.80;;;24.10;98.20;;;;;;4861701;29;20125;-92
2021/07/02 09:30:49;;;;;;;2.20;2.00;;;24.10;98.30;;;;;;4861547;29;20030;-91
2021/07/02 09:33:18;;;;;;;2.25;2.05;;;24.10;98.30;;;;;;4862733;29;20499;-90
2021/07/02 09:35:56;;;;;;;1.98;1.88;;;24.20;98.40;;;;;;4870662;29;20025;-90
2021/07/02 09:38:37;;;;;;;1.75;1.65;;;24.20;98.50;;;;;;4864612;29;20539;-91
2021/07/02 09:41:04;;;;;;;2.60;2.40;;;24.20;98.70;;;;;;4863391;29;20040;-90
2021/07/02 09:43:30;;;;;;;2.10;1.85;;;24.20;99.00;;;;;;4870014;29;20478;-89
2021/07/02 09:46:07;;;;;;;1.92;1.80;;;24.20;99.10;;;;;;4883713;29;20033;-91
2021/07/02 09:48:44;;;;;;;2.22;2.03;;;24.30;99.20;;;;;;4881701;29;20104;-90
2021/07/02 09:51:10;;;;;;;2.85;2.33;;;24.30;99.30;;;;;;4882124;29;20108;-90
2021/07/02 09:53:37;;;;;;;2.97;2.67;;;24.30;99.30;;;;;;4880386;29;20033;-90
2021/07/02 09:56:09;;;;;;;2.72;2.03;;;24.30;99.30;;;;;;4880243;29;20029;-91
2021/07/02 09:58:42;;;;;;;2.30;2.10;;;24.30;99.30;;;;;;4879813;29;20387;-90
2021/07/02 10:01:09;;;;;;;2.50;2.30;;;24.30;99.40;;;;;;4880072;29;20025;-91
2021/07/02 10:03:37;;;;;;;2.80;2.55;;;24.30;99.30;;;;;;4880456;29;20067;-90
2021/07/02 10:06:10;;;;;;;3.53;2.95;;;24.40;99.30;;;;;;4879513;29;20033;-90
2021/07/02 10:08:39;;;;;;;2.72;2.45;;;24.30;99.10;;;;;;4880778;29;20495;-90
2021/07/02 10:11:13;;;;;;;2.55;2.20;;;24.30;99.00;;;;;;4879762;29;20089;-90
2021/07/02 10:13:43;;;;;;;2.55;2.35;;;24.40;98.90;;;;;;4880162;29;20037;-91
2021/07/02 10:16:11;;;;;;;2.58;2.38;;;24.40;98.90;;;;;;4881245;29;20464;-90
2021/07/02 10:18:39;;;;;;;2.60;2.40;;;24.40;98.80;;;;;;4879353;29;20511;-90
2021/07/02 10:21:05;;;;;;;2.53;2.30;;;24.40;98.80;;;;;;4880831;29;20069;-90
2021/07/02 10:23:41;;;;;;;2.38;2.17;;;24.40;98.70;;;;;;4877514;29;20041;-90
2021/07/02 10:26:08;;;;;;;3.13;2.55;;;24.40;98.70;;;;;;4879339;29;20514;-90
2021/07/02 10:28:39;;;;;;;2.20;2.00;;;24.40;98.70;;;;;;4881612;29;20028;-91
2021/07/02 10:31:09;;;;;;;2.67;2.22;;;24.40;98.60;;;;;;4881969;29;20032;-90
2021/07/02 10:33:40;;;;;;;2.38;2.17;;;24.40;98.70;;;;;;4881671;29;20468;-90
2021/07/02 10:36:06;;;;;;;2.40;2.10;;;24.50;98.70;;;;;;4880486;29;20029;-89
2021/07/02 10:38:42;;;;;;;2.45;2.25;;;24.50;98.70;;;;;;4880156;29;20096;-89
2021/07/02 10:41:16;;;;;;;2.30;2.10;;;24.50;98.70;;;;;;4880481;29;20041;-90
2021/07/02 10:44:08;;;;;;;2.60;2.30;;;24.50;98.70;;;;;;4879199;29;20037;-91
2021/07/02 10:46:49;;;;;;;2.63;2.10;;;24.60;98.70;;;;;;4879088;29;20041;-90
2021/07/02 10:49:17;;;;;;;3.72;2.33;;;24.50;98.60;;;;;;4878778;29;20029;-89
2021/07/02 10:51:49;;;;;;;2.75;2.30;;;24.50;98.60;;;;;;4881374;29;20033;-90
2021/07/02 10:54:21;;;;;;;2.47;2.17;;;24.60;98.60;;;;;;4880514;29;20077;-90
2021/07/02 10:56:56;;;;;;;2.50;2.30;;;24.60;98.60;;;;;;4879170;29;20127;-90
2021/07/02 10:59:43;;;;;;;2.47;2.22;;;24.60;98.50;;;;;;4880110;29;20032;-89
2021/07/02 11:02:09;;;;;;;2.55;2.35;;;24.60;98.50;;;;;;4878634;29;20031;-90
2021/07/02 11:04:45;;;;;;;2.50;2.28;;;24.60;98.50;;;;;;4879924;29;20037;-89
2021/07/02 11:07:25;;;;;;;2.25;2.05;;;24.60;98.50;;;;;;4878899;29;20064;-90
2021/07/02 11:09:54;;;;;;;2.40;2.20;;;24.60;98.40;;;;;;4879067;29;20224;-90
2021/07/02 11:12:31;;;;;;;2.10;1.90;;;24.60;98.50;;;;;;4878600;29;20029;-90
2021/07/02 11:15:05;;;;;;;2.67;2.40;;;24.60;98.50;;;;;;4878952;29;20124;-89
2021/07/02 11:17:33;;;;;;;2.83;2.20;;;24.60;98.50;;;;;;4879880;29;20081;-89
2021/07/02 11:20:08;;;;;;;2.50;2.30;;;24.70;98.50;;;;;;4880784;29;20052;-89
2021/07/02 11:22:45;;;;;;;2.20;2.00;;;24.60;98.50;;;;;;4890058;29;20029;-89
2021/07/02 11:27:51;;;;;;;2.40;2.20;;;24.60;98.50;;;;;;4881676;29;20043;-91
2021/07/02 11:30:19;;;;;;;2.10;1.90;;;24.60;98.50;;;;;;4880199;29;20025;-89
2021/07/02 11:32:47;;;;;;;2.10;1.90;;;24.70;98.50;;;;;;4878533;29;20033;-90
2021/07/02 11:35:27;;;;;;;2.63;2.13;;;24.70;98.50;;;;;;4864502;29;20036;-90
2021/07/02 11:38:02;;;;;;;3.05;2.00;;;24.70;98.40;;;;;;4878657;29;20040;-90
2021/07/02 11:40:30;;;;;;;2.30;2.10;;;24.70;98.70;;;;;;4880088;29;20029;-89
2021/07/02 11:42:57;;;;;;;2.35;2.15;;;24.70;98.40;;;;;;4879678;29;20025;-90
2021/07/02 11:45:45;;;;;;;2.08;1.88;;;24.70;98.40;;;;;;4863129;29;20033;-90
2021/07/02 11:48:20;;;;;;;2.28;2.08;;;24.70;98.40;;;;;;4879293;29;20487;-90
2021/07/02 11:50:50;;;;;;;2.40;2.15;;;24.70;98.40;;;;;;4878776;29;20029;-89
2021/07/02 11:53:26;;;;;;;2.60;2.40;;;24.70;98.40;;;;;;4881857;29;20029;-90
2021/07/02 11:56:08;;;;;;;2.25;2.05;;;24.70;98.30;;;;;;4882354;29;20543;-92
2021/07/02 11:58:36;;;;;;;2.58;2.38;;;24.70;98.30;;;;;;4882725;29;20130;-90
2021/07/02 12:01:09;;;;;;;2.70;2.30;;;24.70;98.30;;;;;;4882058;29;20033;-90
2021/07/02 12:03:36;;;;;;;2.40;2.20;;;24.70;98.30;;;;;;4881734;29;20044;-90
2021/07/02 12:06:03;;;;;;;2.30;2.10;;;24.70;98.40;;;;;;4881799;29;20084;-91
2021/07/02 12:08:30;;;;;;;2.33;2.13;;;24.70;98.30;;;;;;4882712;29;20131;-91
2021/07/02 12:11:00;;;;;;;3.03;2.38;;;24.70;98.30;;;;;;4882610;29;20032;-91
2021/07/02 12:13:27;;;;;;;2.25;2.05;;;24.70;98.30;;;;;;4886525;29;20041;-91
2021/07/02 12:16:09;;;;;;;2.58;2.38;;;24.70;98.40;;;;;;4868329;29;20412;-92
2021/07/02 12:18:37;;;;;;;2.65;2.30;;;24.70;98.30;;;;;;4883100;29;20025;-91
2021/07/02 12:21:13;;;;;;;2.50;2.30;;;24.70;98.30;;;;;;4883339;29;20053;-91
2021/07/02 12:23:43;;;;;;;2.70;2.47;;;24.70;98.30;;;;;;4883299;29;20033;-92
2021/07/02 12:26:16;;;;;;;2.60;2.40;;;24.70;98.30;;;;;;4867272;29;20043;-90
2021/07/02 12:29:05;;;;;;;2.75;2.47;;;24.70;98.30;;;;;;4884192;29;20028;-90
2021/07/02 12:31:43;;;;;;;3.10;2.80;;;24.70;98.30;;;;;;4882977;29;20028;-90
2021/07/02 12:34:27;;;;;;;2.45;2.25;;;24.70;98.30;;;;;;4882179;29;20029;-91
2021/07/02 12:37:13;;;;;;;3.13;2.83;;;24.80;98.30;;;;;;4881421;29;20029;-91
2021/07/02 12:39:41;;;;;;;3.33;3.00;;;24.80;98.30;;;;;;4882209;29;20388;-90
2021/07/02 12:42:17;;;;;;;2.78;2.58;;;24.70;98.30;;;;;;4880664;29;20025;-89
2021/07/02 12:44:55;;;;;;;3.03;2.72;;;24.80;98.30;;;;;;4880158;29;20514;-90
2021/07/02 12:47:22;;;;;;;2.85;2.58;;;24.80;98.30;;;;;;4881130;29;20109;-90
2021/07/02 12:49:57;;;;;;;3.40;3.10;;;24.80;98.30;;;;;;4880974;29;20519;-90
2021/07/02 12:55:10;;;;;;;6.35;3.60;;;24.80;98.30;;;;;;4882332;29;20488;-90
2021/07/02 12:57:36;;;;;;;4.05;3.28;;;24.80;98.20;;;;;;4880915;29;20032;-90
2021/07/02 13:00:12;;;;;;;3.40;3.10;;;24.80;98.30;;;;;;4881154;29;20029;-90